createdAt,value
2022-09-18T00:00:16.498Z,101051.19
2022-09-18T00:02:44.774Z,101049.25
2022-09-18T00:05:16.271Z,101031.22
2022-09-18T00:07:44.261Z,101059.91
2022-09-18T00:10:18.523Z,101059.66
2022-09-18T00:12:46.494Z,101055.41
2022-09-18T00:15:14.518Z,101047.47
2022-09-18T00:17:42.619Z,101050.06
2022-09-18T00:20:14.479Z,101047.59
2022-09-18T00:22:43.749Z,101047.22
2022-09-18T00:25:16.878Z,101038.56
2022-09-18T00:27:44.901Z,101060.03
2022-09-18T00:30:28.399Z,101065.91
2022-09-18T00:33:03.363Z,101057.28
2022-09-18T00:35:43.087Z,101056.03
2022-09-18T00:38:13.621Z,101062.16
2022-09-18T00:40:42.128Z,101081.88
2022-09-18T00:43:21.949Z,101054.03
2022-09-18T00:45:56.036Z,101046.88
2022-09-18T00:48:29.278Z,101063.53
2022-09-18T00:50:57.673Z,101069.84
2022-09-18T00:53:27.377Z,101055.47
2022-09-18T00:55:55.957Z,101065.84
2022-09-18T00:58:33.122Z,101031.25
2022-09-18T01:01:01.590Z,101052.28
2022-09-18T01:03:30.999Z,101043.84
2022-09-18T01:06:11.860Z,101048.75
2022-09-18T01:08:54.757Z,101043.28
2022-09-18T01:11:42.722Z,101065.84
2022-09-18T01:14:26.635Z,101056.94
2022-09-18T01:17:00.052Z,101070.75
2022-09-18T01:19:45.540Z,101052.41
2022-09-18T01:22:27.941Z,101060.09
2022-09-18T01:25:18.414Z,101058.25
2022-09-18T01:28:12.958Z,101053.13
2022-09-18T01:30:56.274Z,101054.59
2022-09-18T01:33:33.220Z,101063.81
2022-09-18T01:36:06.804Z,101070.06
2022-09-18T01:38:47.036Z,101038.06
2022-09-18T01:41:21.803Z,101058.97
2022-09-18T01:44:01.498Z,101038.69
2022-09-18T01:46:33.848Z,101054.97
2022-09-18T01:49:12.252Z,101052.66
2022-09-18T01:51:49.353Z,101046.53
2022-09-18T01:54:24.854Z,101048.38
2022-09-18T01:57:02.995Z,101015.47
2022-09-18T01:59:41.819Z,101014.75
2022-09-18T02:02:18.704Z,101052.81
2022-09-18T02:05:15.334Z,101015.31
2022-09-18T02:07:53.948Z,101051.94
2022-09-18T02:10:33.722Z,101039.59
2022-09-18T02:13:12.318Z,101023.91
2022-09-18T02:15:47.161Z,101023.06
2022-09-18T02:18:24.895Z,101006.41
2022-09-18T02:20:56.493Z,101037.06
2022-09-18T02:23:26.817Z,101007.50
2022-09-18T02:26:01.663Z,101025.56
2022-09-18T02:28:39.032Z,101013.41
2022-09-18T02:31:20.335Z,101009.25
2022-09-18T02:33:54.079Z,101009.94
2022-09-18T02:36:53.009Z,100999.94
2022-09-18T02:39:38.588Z,101016.31
2022-09-18T02:42:20.998Z,100986.03
2022-09-18T02:45:07.049Z,100994.44
2022-09-18T02:48:09.460Z,100990.88
2022-09-18T02:50:50.877Z,101013.44
2022-09-18T02:53:26.697Z,101001.84
2022-09-18T02:56:04.008Z,100995.72
2022-09-18T02:58:43.769Z,100982.03
2022-09-18T03:01:17.308Z,100996.78
2022-09-18T03:03:47.081Z,101017.41
2022-09-18T03:06:18.458Z,101005.72
2022-09-18T03:08:46.579Z,100989.25
2022-09-18T03:11:18.285Z,100989.84
2022-09-18T03:13:46.497Z,101006.78
2022-09-18T03:16:14.497Z,100981.56
2022-09-18T03:18:45.354Z,100981.53
2022-09-18T03:21:14.902Z,100989.28
2022-09-18T03:23:45.532Z,100987.38
2022-09-18T03:26:14.247Z,100960.50
2022-09-18T03:28:42.480Z,100958.03
2022-09-18T03:31:11.607Z,100951.25
2022-09-18T03:33:40.076Z,100962.47
2022-09-18T03:36:09.543Z,100961.50
2022-09-18T03:38:40.142Z,100959.59
2022-09-18T03:41:08.447Z,100968.22
2022-09-18T03:43:36.498Z,100969.25
2022-09-18T03:46:04.510Z,100989.28
2022-09-18T03:48:32.567Z,100984.94
2022-09-18T03:51:01.094Z,100970.22
2022-09-18T03:53:29.415Z,100953.03
2022-09-18T03:55:58.914Z,100957.41
2022-09-18T03:58:27.153Z,100963.47
2022-09-18T04:00:55.648Z,100938.38
2022-09-18T04:03:23.791Z,100936.50
2022-09-18T04:05:52.074Z,100960.63
2022-09-18T04:08:26.189Z,100950.25
2022-09-18T04:10:54.341Z,100950.38
2022-09-18T04:13:24.258Z,100961.41
2022-09-18T04:15:53.747Z,100965.16
2022-09-18T04:18:27.464Z,100950.97
2022-09-18T04:20:55.859Z,100972.13
2022-09-18T04:23:24.030Z,100965.34
2022-09-18T04:25:52.108Z,100966.06
2022-09-18T04:28:24.864Z,100967.31
2022-09-18T04:30:54.212Z,100954.38
2022-09-18T04:33:22.159Z,100970.91
2022-09-18T04:35:50.841Z,100942.75
2022-09-18T04:38:19.537Z,100958.38
2022-09-18T04:40:55.523Z,100970.34
2022-09-18T04:43:26.477Z,100969.44
2022-09-18T04:45:54.480Z,100964.75
2022-09-18T04:48:23.170Z,100960.91
2022-09-18T04:50:52.677Z,100953.97
2022-09-18T04:53:21.184Z,100968.56
2022-09-18T04:55:50.164Z,100960.38
2022-09-18T04:58:18.795Z,100964.63
2022-09-18T05:00:49.996Z,100957.94
2022-09-18T05:03:27.251Z,100966.59
2022-09-18T05:05:56.305Z,100936.16
2022-09-18T05:08:27.422Z,100961.22
2022-09-18T05:10:55.309Z,100954.22
2022-09-18T05:13:24.591Z,100973.09
2022-09-18T05:15:57.407Z,100958.28
2022-09-18T05:18:25.649Z,100976.28
2022-09-18T05:20:55.106Z,100954.47
2022-09-18T05:23:23.433Z,100943.03
2022-09-18T05:25:51.469Z,100956.97
2022-09-18T05:28:20.085Z,100948.09
2022-09-18T05:30:48.366Z,100969.88
2022-09-18T05:33:17.882Z,100944.59
2022-09-18T05:35:45.925Z,100966.19
2022-09-18T05:38:13.966Z,100956.75
2022-09-18T05:40:42.016Z,100985.47
2022-09-18T05:43:11.616Z,100950.47
2022-09-18T05:45:40.562Z,100994.09
2022-09-18T05:48:12.250Z,100988.03
2022-09-18T05:50:42.253Z,100937.66
2022-09-18T05:53:13.419Z,100976.00
2022-09-18T05:55:42.707Z,100975.09
2022-09-18T05:58:15.709Z,100962.78
2022-09-18T06:00:44.876Z,100946.19
2022-09-18T06:03:15.313Z,100953.28
2022-09-18T06:05:52.241Z,100959.88
2022-09-18T06:08:20.994Z,100959.94
2022-09-18T06:10:49.230Z,100970.28
2022-09-18T06:13:19.861Z,100969.28
2022-09-18T06:15:49.540Z,100971.81
2022-09-18T06:18:17.869Z,100969.28
2022-09-18T06:20:54.234Z,100966.63
2022-09-18T06:23:24.577Z,100954.41
2022-09-18T06:25:59.392Z,100957.56
2022-09-18T06:28:27.839Z,100957.78
2022-09-18T06:30:57.558Z,100963.78
2022-09-18T06:33:26.190Z,100959.69
2022-09-18T06:35:56.928Z,100949.34
2022-09-18T06:38:25.116Z,100945.13
2022-09-18T06:40:55.634Z,100962.00
2022-09-18T06:43:30.466Z,100966.72
2022-09-18T06:46:02.634Z,100931.75
2022-09-18T06:48:31.728Z,100966.53
2022-09-18T06:51:01.108Z,100965.63
2022-09-18T06:53:30.023Z,100946.69
2022-09-18T06:56:02.489Z,100963.78
2022-09-18T06:58:32.132Z,100947.19
2022-09-18T07:01:02.659Z,100961.69
2022-09-18T07:03:33.033Z,100932.31
2022-09-18T07:06:02.702Z,100930.34
2022-09-18T07:08:31.729Z,100950.13
2022-09-18T07:11:03.904Z,100943.81
2022-09-18T07:13:33.273Z,100942.22
2022-09-18T07:16:01.978Z,100947.22
2022-09-18T07:18:30.108Z,100944.41
2022-09-18T07:21:02.956Z,100936.63
2022-09-18T07:23:33.407Z,100927.59
2022-09-18T07:26:02.820Z,100922.41
2022-09-18T07:28:30.872Z,100937.69
2022-09-18T07:31:06.039Z,100909.22
2022-09-18T07:33:35.393Z,100923.78
2022-09-18T07:36:05.069Z,100937.78
2022-09-18T07:38:36.358Z,100919.88
2022-09-18T07:41:05.371Z,100903.16
2022-09-18T07:43:33.818Z,100919.81
2022-09-18T07:46:04.648Z,100939.97
2022-09-18T07:48:32.940Z,100954.03
2022-09-18T07:51:03.529Z,100941.16
2022-09-18T07:53:31.402Z,100943.22
2022-09-18T07:56:08.430Z,100967.63
2022-09-18T07:58:36.830Z,100974.66
2022-09-18T08:01:06.302Z,100988.50
2022-09-18T08:03:39.132Z,100953.63
2022-09-18T08:06:09.725Z,100961.81
2022-09-18T08:08:46.589Z,100959.50
2022-09-18T08:11:16.965Z,100959.88
2022-09-18T08:13:44.961Z,100959.19
2022-09-18T08:16:13.783Z,100952.06
2022-09-18T08:18:44.420Z,100927.91
2022-09-18T08:21:13.014Z,100930.44
2022-09-18T08:23:41.207Z,100942.72
2022-09-18T08:26:09.362Z,100960.84
2022-09-18T08:28:38.789Z,100962.47
2022-09-18T08:31:07.759Z,100955.91
2022-09-18T08:33:35.904Z,100962.88
2022-09-18T08:36:08.001Z,100967.41
2022-09-18T08:38:40.397Z,100943.47
2022-09-18T08:41:26.374Z,100927.78
2022-09-18T08:44:08.841Z,100938.13
2022-09-18T08:46:42.217Z,100971.38
2022-09-18T08:49:23.369Z,100962.47
2022-09-18T08:51:59.103Z,100953.06
2022-09-18T08:54:45.433Z,100935.03
2022-09-18T08:57:19.342Z,100942.16
2022-09-18T08:59:53.383Z,100948.88
2022-09-18T09:02:34.755Z,100948.16
2022-09-18T09:05:11.804Z,100950.06
2022-09-18T09:08:21.291Z,100945.69
2022-09-18T09:11:00.287Z,100930.50
2022-09-18T09:13:58.070Z,100942.53
2022-09-18T09:16:38.738Z,100948.69
2022-09-18T09:19:18.355Z,100950.16
2022-09-18T09:22:02.203Z,100922.66
2022-09-18T09:24:37.241Z,100948.66
2022-09-18T09:27:19.422Z,100957.88
2022-09-18T09:29:52.140Z,100969.50
2022-09-18T09:32:32.669Z,100962.47
2022-09-18T09:35:18.690Z,100983.66
2022-09-18T09:37:49.841Z,100965.22
2022-09-18T09:40:24.514Z,100953.47
2022-09-18T09:42:57.921Z,100956.22
2022-09-18T09:45:32.045Z,100959.31
2022-09-18T09:48:13.306Z,100968.44
2022-09-18T09:50:57.307Z,100979.34
2022-09-18T09:53:29.167Z,100978.13
2022-09-18T09:56:08.631Z,100955.34
2022-09-18T09:58:46.589Z,100949.50
2022-09-18T10:01:22.865Z,100982.38
2022-09-18T10:04:10.212Z,100966.72
2022-09-18T10:06:51.494Z,100954.44
2022-09-18T10:09:29.000Z,100949.19
2022-09-18T10:12:17.045Z,100960.84
2022-09-18T10:14:50.040Z,100968.59
2022-09-18T10:17:21.085Z,100957.44
2022-09-18T10:19:50.887Z,100939.75
2022-09-18T10:22:23.323Z,100956.50
2022-09-18T10:24:56.755Z,100967.44
2022-09-18T10:27:29.094Z,100980.94
2022-09-18T10:29:57.221Z,100966.97
2022-09-18T10:32:36.705Z,100962.81
2022-09-18T10:35:37.082Z,100948.59
2022-09-18T10:38:28.778Z,100964.22
2022-09-18T10:41:16.105Z,100938.53
2022-09-18T10:44:36.813Z,100940.91
2022-09-18T10:47:09.205Z,100942.38
2022-09-18T10:49:41.946Z,100949.16
2022-09-18T10:52:32.111Z,100970.00
2022-09-18T10:55:12.679Z,100977.94
2022-09-18T10:57:44.635Z,100945.50
2022-09-18T11:00:43.488Z,100956.97
2022-09-18T11:03:39.688Z,100976.53
2022-09-18T11:06:24.574Z,100960.16
2022-09-18T11:09:11.107Z,100991.22
2022-09-18T11:11:51.301Z,100956.97
2022-09-18T11:14:34.081Z,100990.00
2022-09-18T11:17:28.299Z,100988.31
2022-09-18T11:20:56.844Z,100985.25
2022-09-18T11:23:36.697Z,100951.03
2022-09-18T11:41:39.564Z,100952.28
2022-09-18T11:44:35.900Z,100983.59
2022-09-18T11:47:38.864Z,100965.44
2022-09-18T11:50:25.467Z,100985.38
2022-09-18T11:53:05.544Z,100979.69
2022-09-18T11:55:41.469Z,100956.28
2022-09-18T11:58:16.966Z,100957.22
2022-09-18T12:00:48.804Z,100990.47
2022-09-18T12:03:24.744Z,100967.34
2022-09-18T12:06:26.961Z,100961.50
2022-09-18T12:09:21.368Z,100962.69
2022-09-18T12:12:02.813Z,100958.81
2022-09-18T12:14:52.246Z,100976.00
2022-09-18T12:17:42.149Z,100979.91
2022-09-18T12:23:14.105Z,100985.38
2022-09-18T12:25:56.830Z,100982.38
2022-09-18T12:28:42.709Z,100971.72
2022-09-18T12:31:17.653Z,100980.19
2022-09-18T12:34:20.564Z,100972.34
2022-09-18T12:37:37.144Z,100976.47
2022-09-18T12:40:45.626Z,100967.81
2022-09-18T12:43:50.566Z,100994.38
2022-09-18T12:47:03.367Z,100974.25
2022-09-18T12:49:55.107Z,100998.94
2022-09-18T12:53:08.284Z,101020.38
2022-09-18T12:56:26.177Z,101014.84
2022-09-18T13:03:35.245Z,101012.66
2022-09-18T13:06:12.335Z,101033.53
2022-09-18T13:09:01.845Z,101030.72
2022-09-18T13:11:33.816Z,101008.69
2022-09-18T13:14:08.543Z,101033.00
2022-09-18T13:16:48.354Z,101030.94
2022-09-18T13:19:33.699Z,101022.31
2022-09-18T13:22:15.268Z,101025.25
2022-09-18T13:25:07.534Z,101045.53
2022-09-18T13:27:42.172Z,101051.00
2022-09-18T13:30:29.561Z,101063.31
2022-09-18T13:33:00.493Z,101045.13
2022-09-18T13:35:31.527Z,101022.69
2022-09-18T13:38:28.567Z,101016.19
2022-09-18T13:41:04.973Z,101011.28
2022-09-18T13:43:42.048Z,101017.91
2022-09-18T13:46:33.663Z,100990.03
2022-09-18T13:49:17.484Z,101002.31
2022-09-18T13:51:47.937Z,101008.06
2022-09-18T13:54:35.432Z,100994.91
2022-09-18T13:57:22.934Z,101003.50
2022-09-18T14:00:01.186Z,100985.84
2022-09-18T14:02:35.684Z,100999.47
2022-09-18T14:05:26.054Z,101025.16
2022-09-18T14:08:30.980Z,101024.06
2022-09-18T14:11:16.123Z,101026.94
2022-09-18T14:13:54.395Z,101021.28
2022-09-18T14:16:31.919Z,101018.25
2022-09-18T14:19:04.753Z,100999.72
2022-09-18T14:21:35.253Z,101003.66
2022-09-18T14:24:06.523Z,101015.22
2022-09-18T14:27:11.329Z,101033.53
2022-09-18T14:29:41.146Z,101041.38
2022-09-18T14:32:19.105Z,101032.66
2022-09-18T14:34:55.407Z,101018.59
2022-09-18T14:37:26.269Z,101028.00
2022-09-18T14:39:58.006Z,101055.38
2022-09-18T14:42:33.349Z,101046.91
2022-09-18T14:45:22.079Z,101021.81
2022-09-18T14:47:50.730Z,101042.59
2022-09-18T14:50:31.940Z,101026.69
2022-09-18T14:53:02.785Z,101015.50
2022-09-18T14:55:35.958Z,101013.19
2022-09-18T14:58:08.528Z,100967.09
2022-09-18T15:00:39.599Z,100976.66
2022-09-18T15:03:14.615Z,100954.75
2022-09-18T15:05:44.138Z,100961.50
2022-09-18T15:08:21.637Z,100989.69
2022-09-18T15:10:53.669Z,100940.47
2022-09-18T15:13:26.130Z,100978.22
2022-09-18T15:16:04.394Z,100960.38
2022-09-18T15:18:41.853Z,100933.91
2022-09-18T15:21:23.153Z,100945.41
2022-09-18T15:23:52.191Z,100977.34
2022-09-18T15:26:26.013Z,100992.00
2022-09-18T15:28:55.896Z,100967.31
2022-09-18T15:31:31.461Z,100985.66
2022-09-18T15:34:03.461Z,101005.06
2022-09-18T15:36:35.894Z,100994.22
2022-09-18T15:39:07.288Z,101016.06
2022-09-18T15:41:52.691Z,100996.78
2022-09-18T15:44:59.822Z,101009.31
2022-09-18T15:47:37.116Z,100982.91
2022-09-18T15:50:33.817Z,101004.06
2022-09-18T15:53:14.474Z,101009.31
2022-09-18T15:55:54.263Z,101035.06
2022-09-18T15:58:45.029Z,101002.19
2022-09-18T16:01:22.805Z,101014.22
2022-09-18T16:04:08.725Z,100996.75
2022-09-18T16:06:50.879Z,100977.41
2022-09-18T16:09:37.723Z,100980.44
2022-09-18T16:12:27.823Z,100997.19
2022-09-18T16:15:17.511Z,101006.91
2022-09-18T16:18:06.424Z,101022.66
2022-09-18T16:20:41.791Z,101008.81
2022-09-18T16:23:28.956Z,101019.06
2022-09-18T16:26:18.819Z,101018.44
2022-09-18T16:28:50.559Z,101018.38
2022-09-18T16:31:21.513Z,101010.81
2022-09-18T16:33:59.389Z,101022.09
2022-09-18T16:36:35.311Z,101016.13
2022-09-18T16:39:07.900Z,101021.53
2022-09-18T16:41:36.700Z,101045.63
2022-09-18T16:44:10.928Z,101052.59
2022-09-18T16:46:43.088Z,101056.72
2022-09-18T16:49:17.329Z,101057.50
2022-09-18T16:51:47.376Z,101068.97
2022-09-18T16:54:16.024Z,101077.59
2022-09-18T16:56:51.710Z,101098.88
2022-09-18T16:59:22.926Z,101124.31
2022-09-18T17:02:03.332Z,101110.47
2022-09-18T17:04:32.753Z,101094.19
2022-09-18T17:07:02.080Z,101050.16
2022-09-18T17:09:30.344Z,101059.91
2022-09-18T17:11:58.226Z,101054.78
2022-09-18T17:14:27.543Z,101044.94
2022-09-18T17:16:55.646Z,101017.94
2022-09-18T17:19:23.733Z,101022.69
2022-09-18T17:21:51.845Z,101029.72
2022-09-18T17:24:25.549Z,101006.91
2022-09-18T17:26:54.098Z,101065.44
2022-09-18T17:29:22.157Z,101076.47
2022-09-18T17:31:50.220Z,101070.16
2022-09-18T17:34:22.081Z,101097.03
2022-09-18T17:36:49.972Z,101064.19
2022-09-18T17:39:18.281Z,101070.09
2022-09-18T17:41:48.187Z,101074.69
2022-09-18T17:44:16.387Z,101064.88
2022-09-18T17:46:51.429Z,101033.38
2022-09-18T17:49:20.467Z,101043.25
2022-09-18T17:51:48.773Z,101050.28
2022-09-18T17:54:16.992Z,101051.72
2022-09-18T17:56:45.489Z,101045.63
2022-09-18T17:59:18.328Z,101053.25
2022-09-18T18:01:48.687Z,101069.94
2022-09-18T18:04:16.974Z,101065.56
2022-09-18T18:06:48.107Z,101070.97
2022-09-18T18:09:16.546Z,101063.19
2022-09-18T18:11:46.318Z,101066.06
2022-09-18T18:14:16.032Z,101061.16
2022-09-18T18:16:44.137Z,101066.28
2022-09-18T18:19:13.105Z,101072.44
2022-09-18T18:21:42.557Z,101066.81
2022-09-18T18:24:15.031Z,101092.75
2022-09-18T18:26:43.961Z,101095.13
2022-09-18T18:29:14.048Z,101085.50
2022-09-18T18:31:44.341Z,101084.47
2022-09-18T18:34:13.582Z,101069.63
2022-09-18T18:36:43.304Z,101087.22
2022-09-18T18:39:13.104Z,101082.88
2022-09-18T18:41:41.112Z,101084.66
2022-09-18T18:44:09.432Z,101097.56
2022-09-18T18:46:38.747Z,101069.53
2022-09-18T18:49:10.101Z,101084.44
2022-09-18T18:51:40.552Z,101107.25
2022-09-18T18:54:08.608Z,101091.75
2022-09-18T18:56:38.783Z,101097.53
2022-09-18T18:59:09.053Z,101089.78
2022-09-18T19:01:37.203Z,101109.53
2022-09-18T19:04:08.417Z,101112.97
2022-09-18T19:06:39.004Z,101101.56
2022-09-18T19:09:09.211Z,101099.75
2022-09-18T19:11:42.778Z,101121.88
2022-09-18T19:14:14.156Z,101136.69
2022-09-18T19:16:41.997Z,101140.25
2022-09-18T19:19:11.777Z,101161.00
2022-09-18T19:21:40.171Z,101136.16
2022-09-18T19:24:10.183Z,101142.09
2022-09-18T19:26:40.088Z,101147.28
2022-09-18T19:29:12.213Z,101117.44
2022-09-18T19:31:42.745Z,101121.91
2022-09-18T19:34:13.326Z,101128.81
2022-09-18T19:36:41.791Z,101112.25
2022-09-18T19:39:13.098Z,101105.50
2022-09-18T19:41:46.656Z,101119.38
2022-09-18T19:44:19.164Z,101110.75
2022-09-18T19:46:48.197Z,101122.84
2022-09-18T19:49:19.661Z,101113.16
2022-09-18T19:51:48.066Z,101127.25
2022-09-18T19:54:16.113Z,101142.88
2022-09-18T19:56:47.402Z,101116.63
2022-09-18T19:59:15.430Z,101113.16
2022-09-18T20:01:43.581Z,101135.88
2022-09-18T20:04:11.671Z,101146.34
2022-09-18T20:06:42.420Z,101129.78
2022-09-18T20:09:10.803Z,101168.94
2022-09-18T20:11:38.750Z,101175.16
2022-09-18T20:14:06.805Z,101166.34
2022-09-18T20:16:35.000Z,101177.88
2022-09-18T20:19:02.976Z,101174.22
2022-09-18T20:21:30.950Z,101173.25
2022-09-18T20:24:02.105Z,101172.34
2022-09-18T20:26:30.019Z,101159.34
2022-09-18T20:28:58.146Z,101163.59
2022-09-18T20:31:26.551Z,101167.66
2022-09-18T20:33:58.389Z,101174.69
2022-09-18T20:36:27.441Z,101172.72
2022-09-18T20:38:57.881Z,101170.78
2022-09-18T20:41:29.962Z,101181.13
2022-09-18T20:44:05.046Z,101187.16
2022-09-18T20:46:37.244Z,101167.13
2022-09-18T20:49:06.389Z,101182.59
2022-09-18T20:51:36.069Z,101195.03
2022-09-18T20:54:08.198Z,101179.53
2022-09-18T20:56:41.996Z,101165.06
2022-09-18T20:59:10.713Z,101181.06
2022-09-18T21:01:40.305Z,101156.09
2022-09-18T21:04:09.653Z,101183.88
2022-09-18T21:06:38.371Z,101186.47
2022-09-18T21:09:09.322Z,101184.78
2022-09-18T21:11:41.348Z,101176.28
2022-09-18T21:14:12.333Z,101185.81
2022-09-18T21:16:42.992Z,101192.06
2022-09-18T21:19:12.759Z,101183.22
2022-09-18T21:21:41.568Z,101193.72
2022-09-18T21:24:10.018Z,101185.91
2022-09-18T21:26:40.575Z,101194.72
2022-09-18T21:29:13.725Z,101200.06
2022-09-18T21:31:43.353Z,101193.72
2022-09-18T21:34:13.040Z,101191.16
2022-09-18T21:36:44.004Z,101193.53
2022-09-18T21:39:13.757Z,101210.06
2022-09-18T21:41:46.333Z,101195.84
2022-09-18T21:44:16.105Z,101197.47
2022-09-18T21:46:45.953Z,101197.56
2022-09-18T21:49:16.080Z,101189.81
2022-09-18T21:51:44.479Z,101197.09
2022-09-18T21:54:15.692Z,101209.09
2022-09-18T21:56:46.434Z,101201.34
2022-09-18T21:59:14.491Z,101212.56
2022-09-18T22:01:43.477Z,101213.47
2022-09-18T22:04:12.064Z,101214.09
2022-09-18T22:06:42.319Z,101215.25
2022-09-18T22:09:12.589Z,101230.66
2022-09-18T22:11:41.661Z,101237.63
2022-09-18T22:14:14.141Z,101240.19
2022-09-18T22:16:45.020Z,101243.91
2022-09-18T22:19:12.914Z,101248.53
2022-09-18T22:21:42.964Z,101251.81
2022-09-18T22:24:12.688Z,101245.03
2022-09-18T22:26:43.245Z,101235.59
2022-09-18T22:29:16.778Z,101254.63
2022-09-18T22:31:46.510Z,101268.75
2022-09-18T22:34:16.564Z,101271.47
2022-09-18T22:36:45.108Z,101270.47
2022-09-18T22:39:13.069Z,101288.16
2022-09-18T22:41:41.165Z,101287.03
2022-09-18T22:44:09.888Z,101253.06
2022-09-18T22:46:41.264Z,101276.59
2022-09-18T22:49:10.189Z,101274.84
2022-09-18T22:51:40.199Z,101278.38
2022-09-18T22:54:08.999Z,101267.31
2022-09-18T22:56:39.466Z,101263.84
2022-09-18T22:59:08.663Z,101290.06
2022-09-18T23:01:42.460Z,101276.09
2022-09-18T23:04:11.071Z,101271.66
2022-09-18T23:06:39.617Z,101293.53
2022-09-18T23:09:07.740Z,101265.16
2022-09-18T23:11:36.109Z,101266.16
2022-09-18T23:14:06.172Z,101262.00
2022-09-18T23:16:37.577Z,101287.88
2022-09-18T23:19:10.286Z,101284.44
2022-09-18T23:21:39.721Z,101309.91
2022-09-18T23:24:09.469Z,101297.75
2022-09-18T23:26:39.372Z,101311.78
2022-09-18T23:29:08.575Z,101296.97
2022-09-18T23:31:38.911Z,101312.69
2022-09-18T23:34:11.630Z,101314.44
2022-09-18T23:36:41.516Z,101308.31
2022-09-18T23:39:14.003Z,101303.09
2022-09-18T23:41:42.754Z,101309.31
2022-09-18T23:44:12.936Z,101307.41
2022-09-18T23:46:41.594Z,101304.88
2022-09-18T23:49:12.246Z,101296.09
2022-09-18T23:51:42.890Z,101294.19
2022-09-18T23:54:16.586Z,101282.66
2022-09-18T23:56:45.375Z,101290.56
2022-09-18T23:59:14.766Z,101286.28
